Terminal Aerodrome Forecast
Issued by NWS

Home | Current Version | Previous Version | Text Only | Print | Product List | Glossary On
Versions: 1 2 3 4 5 6 7 8 9 10 11 12 13 14 15 16 17 18 19 20 21
794
FTUS43 KGRR 240530
TAFBTL
TAF
KBTL 240530Z 2406/2506 VRB03KT P6SM BKN250
     FM240900 00000KT 4SM BR SCT250
     FM241300 19005KT P6SM SCT035
     FM241700 20007KT P6SM SCT035
     FM250000 VRB05KT P6SM SKC=

USA.gov is the U.S. government's official web portal to all federal, state and local government web resources and services.